Time;durP1;ratioP1;P1;durP2;ratioP2;P2;SDS_P1;SDS_P2;PMS_P1;PMS_P2;Temp;Humidity;BMP_temperature;BMP_pressure;BME280_temperature;BME280_humidity;BME280_pressure;Samples;Min_cycle;Max_cycle;Signal;HPM_P1;HPM_P2
2021/12/21 00:00:24;;;;;;;49.13;30.97;;;;;;;;;;2065786;28;20178;-55
2021/12/21 00:01:24;;;;;;;46.00;29.87;;;;;;;;;;2066384;28;20182;-51
2021/12/21 00:02:25;;;;;;;43.80;30.63;;;;;;;;;;2066182;28;20189;-56
2021/12/21 00:03:25;;;;;;;48.43;29.93;;;;;;;;;;2066064;28;20169;-55
2021/12/21 00:04:26;;;;;;;47.10;28.87;;;;;;;;;;2065055;28;20181;-59
2021/12/21 00:05:29;;;;;;;46.20;29.77;;;;;;;;;;2065349;28;20180;-56
2021/12/21 00:06:29;;;;;;;47.90;30.13;;;;;;;;;;2065285;28;20252;-53
2021/12/21 00:07:30;;;;;;;47.13;31.33;;;;;;;;;;2065068;28;20445;-55
2021/12/21 00:08:30;;;;;;;46.23;31.27;;;;;;;;;;2065510;28;20185;-53
2021/12/21 00:09:30;;;;;;;43.83;30.33;;;;;;;;;;2065519;28;20170;-52
2021/12/21 00:10:32;;;;;;;50.13;30.93;;;;;;;;;;2066182;28;20170;-53
2021/12/21 00:11:32;;;;;;;47.47;29.10;;;;;;;;;;2065051;28;20174;-54
2021/12/21 00:12:34;;;;;;;45.37;31.43;;;;;;;;;;2065372;28;20435;-55
2021/12/21 00:13:42;;;;;;;40.23;28.70;;;;;;;;;;2065484;28;20265;-54
2021/12/21 00:14:58;;;;;;;45.30;28.57;;;;;;;;;;2065646;28;20787;-53
2021/12/21 00:16:19;;;;;;;46.73;28.30;;;;;;;;;;2066096;28;20947;-54
2021/12/21 00:17:43;;;;;;;44.33;28.40;;;;;;;;;;2064766;28;20407;-53
2021/12/21 00:19:07;;;;;;;41.97;26.00;;;;;;;;;;2063771;28;20418;-49
2021/12/21 00:20:22;;;;;;;43.10;26.00;;;;;;;;;;2064585;28;20982;-55
2021/12/21 00:23:16;;;;;;;43.83;27.37;;;;;;;;;;2066126;28;20429;-54
2021/12/21 00:23:46;;;;;;;43.00;25.90;;;;;;;;;;2064165;28;20681;-57
2021/12/21 00:24:48;;;;;;;46.07;27.80;;;;;;;;;;2065799;28;20407;-54
2021/12/21 00:25:50;;;;;;;42.53;28.33;;;;;;;;;;2064074;28;20423;-52
2021/12/21 00:26:50;;;;;;;39.30;27.40;;;;;;;;;;2065577;28;20406;-51
2021/12/21 00:27:52;;;;;;;44.23;27.00;;;;;;;;;;2064114;28;20414;-50
2021/12/21 00:29:52;;;;;;;46.20;27.10;;;;;;;;;;2065046;28;20411;-51
2021/12/21 00:30:53;;;;;;;49.60;27.87;;;;;;;;;;2065861;28;20185;-50
2021/12/21 00:31:53;;;;;;;43.13;28.03;;;;;;;;;;2065129;28;20197;-53
2021/12/21 00:32:53;;;;;;;40.10;27.63;;;;;;;;;;2064890;28;20188;-54
2021/12/21 00:33:54;;;;;;;40.20;27.27;;;;;;;;;;2071299;28;20188;-54
2021/12/21 00:34:54;;;;;;;45.20;28.57;;;;;;;;;;2064696;28;20542;-51
2021/12/21 00:35:54;;;;;;;40.40;27.20;;;;;;;;;;2065897;28;20650;-52
2021/12/21 00:36:54;;;;;;;43.97;27.90;;;;;;;;;;2065635;28;20223;-51
2021/12/21 00:37:56;;;;;;;48.23;26.13;;;;;;;;;;2065998;28;20177;-51
2021/12/21 00:38:58;;;;;;;41.30;28.50;;;;;;;;;;2065563;28;20205;-51
2021/12/21 00:39:58;;;;;;;43.50;27.87;;;;;;;;;;2065190;28;20451;-52
2021/12/21 00:40:59;;;;;;;41.27;26.83;;;;;;;;;;2064298;28;20407;-54
2021/12/21 00:42:01;;;;;;;38.97;25.07;;;;;;;;;;2064444;28;20721;-52
2021/12/21 00:43:01;;;;;;;33.50;24.83;;;;;;;;;;2065517;28;20205;-52
2021/12/21 00:44:01;;;;;;;37.93;25.63;;;;;;;;;;2056857;28;20500;-54
2021/12/21 00:45:02;;;;;;;37.50;25.80;;;;;;;;;;2056823;28;20182;-53
2021/12/21 00:46:03;;;;;;;36.30;26.10;;;;;;;;;;2062777;28;20186;-51
2021/12/21 00:47:03;;;;;;;33.80;23.77;;;;;;;;;;2064587;28;20498;-55
2021/12/21 00:48:04;;;;;;;35.17;24.93;;;;;;;;;;2065144;28;20178;-51
2021/12/21 00:49:13;;;;;;;39.63;26.73;;;;;;;;;;2064647;28;20192;-56
2021/12/21 00:50:17;;;;;;;34.73;25.13;;;;;;;;;;2064298;28;20170;-53
2021/12/21 00:51:18;;;;;;;42.70;24.93;;;;;;;;;;2065882;28;20834;-52
2021/12/21 00:52:18;;;;;;;36.80;26.10;;;;;;;;;;2064713;28;20425;-51
2021/12/21 00:53:18;;;;;;;36.37;25.40;;;;;;;;;;2064688;28;20916;-56
2021/12/21 00:54:20;;;;;;;41.33;26.10;;;;;;;;;;2064740;28;20201;-54
2021/12/21 00:55:21;;;;;;;38.07;25.37;;;;;;;;;;2064263;28;21014;-52
2021/12/21 00:56:21;;;;;;;36.43;25.57;;;;;;;;;;2064178;28;20190;-54
2021/12/21 00:57:21;;;;;;;37.73;24.20;;;;;;;;;;2064793;28;20223;-53
2021/12/21 00:58:22;;;;;;;32.80;23.43;;;;;;;;;;2065092;28;20177;-55
2021/12/21 00:59:22;;;;;;;33.83;25.70;;;;;;;;;;2063515;28;20173;-50
2021/12/21 01:00:23;;;;;;;38.17;25.37;;;;;;;;;;2065448;28;20251;-58
2021/12/21 01:01:23;;;;;;;39.17;25.97;;;;;;;;;;2067145;28;20232;-59
2021/12/21 01:02:24;;;;;;;39.47;25.40;;;;;;;;;;2065809;28;20891;-57
2021/12/21 01:03:24;;;;;;;37.97;26.03;;;;;;;;;;2065035;28;20693;-55
2021/12/21 01:04:31;;;;;;;33.43;24.57;;;;;;;;;;2065760;28;20177;-58
2021/12/21 01:05:40;;;;;;;35.90;24.43;;;;;;;;;;2065789;28;20617;-58
2021/12/21 01:06:57;;;;;;;30.23;22.70;;;;;;;;;;2065916;28;20484;-56
2021/12/21 01:08:00;;;;;;;33.00;23.63;;;;;;;;;;2067966;28;20421;-54
2021/12/21 01:09:51;;;;;;;34.77;24.07;;;;;;;;;;2067181;28;20494;-54
2021/12/21 01:12:03;;;;;;;30.70;19.77;;;;;;;;;;2048668;28;20556;-57
2021/12/21 01:15:02;;;;;;;30.93;20.90;;;;;;;;;;2045606;28;20497;-52
2021/12/21 01:15:52;;;;;;;31.07;19.67;;;;;;;;;;2060123;28;20201;-51
2021/12/21 01:17:10;;;;;;;31.37;19.37;;;;;;;;;;2063917;28;20438;-55
2021/12/21 01:18:18;;;;;;;27.80;19.47;;;;;;;;;;2063071;28;20490;-56
2021/12/21 01:19:25;;;;;;;25.80;19.53;;;;;;;;;;2063768;28;20969;-52
2021/12/21 01:21:01;;;;;;;30.80;20.63;;;;;;;;;;2063961;28;20789;-51
2021/12/21 01:30:48;;;;;;;27.40;18.13;;;;;;;;;;2030735;29;20200;-52
2021/12/21 01:31:48;;;;;;;26.50;18.87;;;;;;;;;;2032533;29;20414;-53
2021/12/21 01:33:03;;;;;;;27.93;20.03;;;;;;;;;;2032169;29;20529;-52
2021/12/21 01:36:34;;;;;;;28.27;17.57;;;;;;;;;;2062507;28;20434;-55
2021/12/21 01:39:48;;;;;;;31.60;19.87;;;;;;;;;;2064292;28;20517;-52
2021/12/21 01:44:06;;;;;;;26.37;18.90;;;;;;;;;;2063145;28;20798;-57
2021/12/21 01:49:36;;;;;;;31.30;19.60;;;;;;;;;;2061734;28;20813;-55
2021/12/21 01:50:25;;;;;;;25.60;18.97;;;;;;;;;;2062719;28;20828;-52
2021/12/21 01:51:26;;;;;;;31.90;18.20;;;;;;;;;;2065131;28;20458;-52
2021/12/21 01:52:27;;;;;;;27.67;18.47;;;;;;;;;;2065014;28;20181;-53
2021/12/21 01:53:27;;;;;;;26.07;17.70;;;;;;;;;;2063060;28;20248;-52
2021/12/21 01:54:28;;;;;;;23.47;19.20;;;;;;;;;;2064142;28;20854;-53
2021/12/21 01:55:28;;;;;;;25.27;17.47;;;;;;;;;;2064118;28;20178;-53
2021/12/21 01:56:28;;;;;;;29.20;18.57;;;;;;;;;;2065091;28;20210;-57
2021/12/21 01:57:28;;;;;;;24.60;17.87;;;;;;;;;;2064423;28;20605;-56
2021/12/21 01:58:29;;;;;;;29.00;18.57;;;;;;;;;;2064178;28;20180;-56
2021/12/21 01:59:30;;;;;;;24.63;18.40;;;;;;;;;;2064278;28;20209;-51
2021/12/21 02:00:31;;;;;;;30.83;19.50;;;;;;;;;;2064593;28;20204;-56
2021/12/21 02:01:31;;;;;;;23.17;18.30;;;;;;;;;;2065031;28;20174;-51
2021/12/21 02:02:32;;;;;;;24.97;17.27;;;;;;;;;;2064145;28;20173;-52
2021/12/21 02:03:32;;;;;;;28.77;18.67;;;;;;;;;;2063796;28;20259;-53
2021/12/21 02:04:32;;;;;;;28.60;18.23;;;;;;;;;;2064263;28;20206;-53
2021/12/21 02:05:32;;;;;;;25.30;17.63;;;;;;;;;;2063085;28;20240;-52
2021/12/21 02:06:33;;;;;;;22.53;16.67;;;;;;;;;;2062509;28;20225;-54
2021/12/21 02:07:33;;;;;;;23.73;18.70;;;;;;;;;;2064037;28;20558;-57
2021/12/21 02:08:33;;;;;;;24.20;18.27;;;;;;;;;;2064022;28;20220;-56
2021/12/21 02:09:37;;;;;;;26.63;17.53;;;;;;;;;;2064886;28;20666;-52
2021/12/21 02:10:38;;;;;;;27.33;16.83;;;;;;;;;;2062471;28;20174;-56
2021/12/21 02:11:38;;;;;;;27.23;17.97;;;;;;;;;;2063645;28;20498;-51
2021/12/21 02:12:38;;;;;;;23.23;18.13;;;;;;;;;;2063940;28;20189;-52
2021/12/21 02:13:43;;;;;;;23.80;17.13;;;;;;;;;;2064469;28;20321;-54
2021/12/21 02:14:47;;;;;;;30.00;16.53;;;;;;;;;;2062237;28;20181;-55
2021/12/21 02:15:48;;;;;;;22.43;16.70;;;;;;;;;;2062393;28;20450;-52
2021/12/21 02:17:39;;;;;;;23.63;17.30;;;;;;;;;;2061578;28;20509;-56
2021/12/21 02:19:33;;;;;;;22.43;15.93;;;;;;;;;;2062136;28;20419;-53
2021/12/21 02:21:42;;;;;;;24.27;14.57;;;;;;;;;;2063754;28;20446;-56
2021/12/21 02:22:49;;;;;;;22.13;15.87;;;;;;;;;;2063722;28;20305;-53
2021/12/21 02:23:51;;;;;;;17.10;13.80;;;;;;;;;;2060959;28;20391;-52
2021/12/21 02:25:30;;;;;;;18.60;14.83;;;;;;;;;;2063703;28;20437;-54
2021/12/21 02:27:30;;;;;;;19.37;14.47;;;;;;;;;;2064472;28;20391;-53
2021/12/21 02:29:33;;;;;;;19.33;15.13;;;;;;;;;;2063978;28;20853;-56
2021/12/21 02:30:35;;;;;;;21.73;15.60;;;;;;;;;;2065067;28;20737;-55
2021/12/21 02:31:37;;;;;;;22.37;15.23;;;;;;;;;;2064309;28;20942;-56
2021/12/21 02:32:37;;;;;;;22.10;16.33;;;;;;;;;;2064244;28;20419;-56
2021/12/21 02:33:37;;;;;;;18.97;14.63;;;;;;;;;;2061280;28;20774;-52
2021/12/21 02:34:38;;;;;;;18.83;15.50;;;;;;;;;;2064563;28;20205;-57
2021/12/21 02:35:38;;;;;;;21.20;15.37;;;;;;;;;;2064117;28;20271;-56
2021/12/21 02:36:39;;;;;;;22.10;15.67;;;;;;;;;;2063789;28;20295;-56
2021/12/21 02:37:39;;;;;;;20.20;15.27;;;;;;;;;;2064892;28;20185;-53
2021/12/21 02:38:40;;;;;;;18.47;15.00;;;;;;;;;;2063723;28;20236;-56
2021/12/21 02:39:40;;;;;;;22.03;16.17;;;;;;;;;;2064750;28;20232;-57
2021/12/21 02:40:40;;;;;;;19.63;15.67;;;;;;;;;;2064416;28;20255;-55
2021/12/21 02:41:41;;;;;;;22.73;15.87;;;;;;;;;;2063066;28;21078;-58
2021/12/21 02:42:41;;;;;;;20.20;15.67;;;;;;;;;;2062777;28;20196;-57
2021/12/21 02:43:42;;;;;;;20.93;15.80;;;;;;;;;;2064127;28;20216;-56
2021/12/21 02:44:48;;;;;;;22.20;16.83;;;;;;;;;;2064737;28;20188;-50
2021/12/21 02:45:49;;;;;;;22.47;15.73;;;;;;;;;;2062666;28;20178;-55
2021/12/21 02:46:49;;;;;;;21.33;14.67;;;;;;;;;;2064196;28;20419;-52
2021/12/21 02:47:49;;;;;;;21.23;15.93;;;;;;;;;;2062519;28;20201;-57
2021/12/21 02:48:50;;;;;;;24.97;15.97;;;;;;;;;;2065506;28;20216;-55
2021/12/21 02:49:50;;;;;;;22.77;16.40;;;;;;;;;;2063851;28;20201;-56
2021/12/21 02:50:50;;;;;;;20.83;15.50;;;;;;;;;;2065268;28;20178;-54
2021/12/21 02:51:51;;;;;;;20.90;15.27;;;;;;;;;;2065023;28;20193;-54
2021/12/21 02:52:51;;;;;;;19.70;15.50;;;;;;;;;;2063538;28;20251;-54
2021/12/21 02:53:52;;;;;;;21.03;15.77;;;;;;;;;;2064623;28;20173;-56
2021/12/21 02:54:52;;;;;;;18.00;15.67;;;;;;;;;;2065281;28;20180;-51
2021/12/21 02:55:52;;;;;;;22.03;15.80;;;;;;;;;;2056195;28;20190;-57
2021/12/21 02:56:53;;;;;;;19.73;14.93;;;;;;;;;;2063942;28;20286;-51
2021/12/21 02:57:53;;;;;;;21.53;15.30;;;;;;;;;;2065073;28;20177;-52
2021/12/21 02:58:53;;;;;;;24.10;15.80;;;;;;;;;;2064802;28;20201;-52
2021/12/21 02:59:54;;;;;;;24.57;17.33;;;;;;;;;;2066509;28;20181;-55
2021/12/21 03:00:54;;;;;;;26.30;16.23;;;;;;;;;;2065160;28;20178;-54
2021/12/21 03:01:55;;;;;;;23.67;16.47;;;;;;;;;;2066600;28;20185;-55
2021/12/21 03:02:55;;;;;;;22.50;17.13;;;;;;;;;;2065896;28;20201;-52
2021/12/21 03:03:56;;;;;;;26.43;17.50;;;;;;;;;;2066195;28;20166;-51
2021/12/21 03:04:56;;;;;;;25.23;16.23;;;;;;;;;;2064128;28;20182;-56
2021/12/21 03:05:58;;;;;;;23.70;16.97;;;;;;;;;;2066167;28;20438;-57
2021/12/21 03:09:37;;;;;;;23.80;16.70;;;;;;;;;;2065542;28;20419;-51
2021/12/21 03:10:31;;;;;;;19.13;16.37;;;;;;;;;;2064123;28;20982;-55
2021/12/21 03:11:48;;;;;;;20.63;15.97;;;;;;;;;;2067593;28;20426;-56
2021/12/21 03:14:04;;;;;;;24.83;16.00;;;;;;;;;;2064515;28;20477;-53
2021/12/21 03:15:05;;;;;;;21.70;16.10;;;;;;;;;;2066334;28;20458;-56
2021/12/21 03:16:05;;;;;;;20.43;17.20;;;;;;;;;;2066185;28;20415;-61
2021/12/21 03:17:06;;;;;;;21.60;17.10;;;;;;;;;;2064924;28;20655;-55
2021/12/21 03:18:06;;;;;;;25.27;18.00;;;;;;;;;;2065915;28;20185;-55
2021/12/21 03:19:08;;;;;;;20.13;16.67;;;;;;;;;;2064670;28;20315;-54
2021/12/21 03:20:08;;;;;;;24.03;18.60;;;;;;;;;;2066339;28;20315;-55
2021/12/21 03:21:09;;;;;;;20.17;16.00;;;;;;;;;;2065472;28;20474;-56
2021/12/21 03:22:09;;;;;;;26.30;16.73;;;;;;;;;;2066827;28;20181;-57
2021/12/21 03:23:10;;;;;;;22.43;16.40;;;;;;;;;;2066573;28;20301;-57
2021/12/21 03:24:10;;;;;;;20.97;15.27;;;;;;;;;;2066735;28;20257;-57
2021/12/21 03:25:11;;;;;;;16.97;14.83;;;;;;;;;;2066251;28;20236;-56
2021/12/21 03:26:11;;;;;;;18.27;15.17;;;;;;;;;;2065824;28;20216;-52
2021/12/21 03:28:15;;;;;;;16.70;14.57;;;;;;;;;;2068339;28;20767;-62
2021/12/21 03:29:16;;;;;;;20.27;14.90;;;;;;;;;;2070731;28;20479;-64
2021/12/21 03:30:16;;;;;;;23.23;15.60;;;;;;;;;;2072021;28;20180;-62
2021/12/21 03:31:16;;;;;;;18.43;15.03;;;;;;;;;;2072893;28;20185;-62
2021/12/21 03:32:17;;;;;;;23.23;14.27;;;;;;;;;;2072159;28;20201;-62
2021/12/21 03:33:17;;;;;;;18.47;13.27;;;;;;;;;;2073113;28;20177;-64
2021/12/21 03:34:18;;;;;;;16.73;14.20;;;;;;;;;;2072616;28;20239;-64
2021/12/21 03:35:18;;;;;;;16.43;13.37;;;;;;;;;;2072910;28;20263;-62
2021/12/21 03:36:18;;;;;;;17.33;13.77;;;;;;;;;;2072853;28;20194;-62
2021/12/21 03:37:19;;;;;;;17.57;14.03;;;;;;;;;;2072778;28;20379;-63
2021/12/21 03:38:19;;;;;;;19.20;13.60;;;;;;;;;;2072090;28;20169;-62
2021/12/21 03:39:20;;;;;;;17.10;13.70;;;;;;;;;;2073289;28;20289;-62
2021/12/21 03:40:20;;;;;;;17.40;14.00;;;;;;;;;;2073454;28;20191;-61
2021/12/21 03:41:21;;;;;;;17.60;13.97;;;;;;;;;;2073141;28;20439;-62
2021/12/21 03:42:23;;;;;;;14.33;12.83;;;;;;;;;;2072561;28;20276;-61
2021/12/21 03:43:23;;;;;;;17.00;13.30;;;;;;;;;;2061402;28;20411;-62
2021/12/21 03:44:25;;;;;;;17.07;13.83;;;;;;;;;;2072420;28;20445;-62
2021/12/21 03:45:25;;;;;;;18.00;13.53;;;;;;;;;;2071346;28;20562;-63
2021/12/21 03:46:26;;;;;;;15.07;13.43;;;;;;;;;;2073827;28;20414;-60
2021/12/21 03:47:27;;;;;;;14.77;13.20;;;;;;;;;;2070024;28;20201;-61
2021/12/21 03:48:28;;;;;;;16.90;13.17;;;;;;;;;;2072638;28;20912;-63
2021/12/21 03:50:33;;;;;;;19.13;13.80;;;;;;;;;;2073672;28;20906;-59
2021/12/21 03:51:33;;;;;;;16.40;13.20;;;;;;;;;;2073376;28;20424;-61
2021/12/21 03:52:33;;;;;;;14.27;12.33;;;;;;;;;;2073155;28;20373;-60
2021/12/21 03:53:34;;;;;;;14.67;12.00;;;;;;;;;;2072743;28;20172;-64
2021/12/21 03:54:34;;;;;;;13.80;12.20;;;;;;;;;;2073902;28;20658;-60
2021/12/21 03:55:35;;;;;;;16.43;13.23;;;;;;;;;;2073708;28;20181;-63
2021/12/21 03:56:40;;;;;;;18.23;13.37;;;;;;;;;;2072994;28;20206;-60
2021/12/21 03:57:40;;;;;;;13.33;11.23;;;;;;;;;;2073769;28;20703;-61
2021/12/21 03:58:41;;;;;;;13.83;12.37;;;;;;;;;;2072651;28;20445;-64
2021/12/21 03:59:42;;;;;;;15.63;11.63;;;;;;;;;;2072813;28;20300;-62
2021/12/21 04:00:43;;;;;;;14.50;13.03;;;;;;;;;;2070996;28;20191;-63
2021/12/21 04:01:44;;;;;;;15.23;13.53;;;;;;;;;;2073106;28;20418;-62
2021/12/21 04:02:44;;;;;;;14.33;12.83;;;;;;;;;;2070196;28;20674;-63
2021/12/21 04:03:45;;;;;;;22.90;15.20;;;;;;;;;;2073927;28;20417;-63
2021/12/21 04:04:45;;;;;;;17.10;14.63;;;;;;;;;;2070281;28;20638;-59
2021/12/21 04:05:46;;;;;;;16.47;13.53;;;;;;;;;;2075986;28;20181;-63
2021/12/21 04:06:46;;;;;;;19.37;15.80;;;;;;;;;;2074394;28;20256;-62
2021/12/21 04:07:47;;;;;;;20.07;14.87;;;;;;;;;;2072668;28;20247;-65
2021/12/21 04:08:47;;;;;;;19.93;14.97;;;;;;;;;;2072047;28;20173;-63
2021/12/21 04:09:48;;;;;;;14.77;13.17;;;;;;;;;;2073245;28;20626;-64
2021/12/21 04:10:48;;;;;;;16.40;12.50;;;;;;;;;;2074282;28;20522;-62
2021/12/21 04:11:49;;;;;;;14.60;13.13;;;;;;;;;;2074513;28;20519;-62
2021/12/21 04:12:49;;;;;;;20.77;14.20;;;;;;;;;;2073847;28;20689;-62
2021/12/21 04:13:49;;;;;;;18.60;14.20;;;;;;;;;;2074631;28;20172;-64
2021/12/21 04:14:50;;;;;;;15.27;13.67;;;;;;;;;;2073788;28;20256;-63
2021/12/21 04:15:53;;;;;;;15.00;13.50;;;;;;;;;;2073669;28;20181;-63
2021/12/21 04:16:53;;;;;;;19.47;14.27;;;;;;;;;;2074265;28;20177;-62
2021/12/21 04:17:53;;;;;;;17.27;13.77;;;;;;;;;;2073394;28;20957;-63
2021/12/21 04:18:54;;;;;;;18.50;13.43;;;;;;;;;;2074027;28;20169;-63
2021/12/21 04:19:54;;;;;;;16.57;12.73;;;;;;;;;;2073980;28;20211;-64
2021/12/21 04:20:54;;;;;;;16.53;13.40;;;;;;;;;;2073987;28;20219;-63
2021/12/21 04:21:55;;;;;;;16.10;12.63;;;;;;;;;;2073697;28;20230;-63
2021/12/21 04:22:55;;;;;;;14.30;12.50;;;;;;;;;;2073231;28;20205;-62
2021/12/21 04:23:56;;;;;;;15.77;13.27;;;;;;;;;;2073109;28;20633;-62
2021/12/21 04:24:56;;;;;;;15.17;13.47;;;;;;;;;;2074017;28;20177;-62
2021/12/21 04:25:57;;;;;;;15.40;13.10;;;;;;;;;;2073699;28;20192;-62
2021/12/21 04:26:57;;;;;;;15.07;13.47;;;;;;;;;;2073866;28;20230;-62
2021/12/21 04:27:57;;;;;;;17.87;15.07;;;;;;;;;;2073277;28;20712;-62
2021/12/21 04:28:58;;;;;;;17.80;13.80;;;;;;;;;;2073770;28;20181;-62
2021/12/21 04:29:58;;;;;;;17.00;12.30;;;;;;;;;;2073464;28;20200;-62
2021/12/21 04:30:58;;;;;;;14.13;12.67;;;;;;;;;;2073870;28;20157;-63
2021/12/21 04:31:58;;;;;;;16.90;13.60;;;;;;;;;;2073689;28;20604;-62
2021/12/21 04:32:59;;;;;;;16.43;12.03;;;;;;;;;;2073754;28;20181;-62
2021/12/21 04:33:59;;;;;;;16.17;12.50;;;;;;;;;;2073810;28;20177;-61
2021/12/21 04:34:59;;;;;;;16.27;14.00;;;;;;;;;;2073895;28;20227;-62
2021/12/21 04:36:00;;;;;;;16.80;12.40;;;;;;;;;;2072685;28;20169;-63
2021/12/21 04:37:00;;;;;;;15.07;13.47;;;;;;;;;;2072403;28;20169;-61
2021/12/21 04:38:13;;;;;;;13.83;12.43;;;;;;;;;;2073178;28;20201;-63
2021/12/21 04:39:28;;;;;;;15.13;12.57;;;;;;;;;;2073353;28;20173;-63
2021/12/21 04:40:42;;;;;;;12.63;11.33;;;;;;;;;;2073133;28;20409;-63
2021/12/21 04:41:43;;;;;;;14.03;12.57;;;;;;;;;;2073606;28;20401;-63
2021/12/21 04:42:44;;;;;;;18.47;12.83;;;;;;;;;;2071153;28;20442;-63
2021/12/21 04:43:44;;;;;;;18.10;11.97;;;;;;;;;;2073186;28;20953;-63
2021/12/21 04:44:44;;;;;;;14.37;12.83;;;;;;;;;;2073573;28;20262;-63
2021/12/21 04:45:44;;;;;;;16.03;12.90;;;;;;;;;;2073400;28;20177;-63
2021/12/21 04:46:45;;;;;;;17.43;12.23;;;;;;;;;;2073495;28;20176;-63
2021/12/21 04:47:45;;;;;;;19.00;12.77;;;;;;;;;;2072536;28;20359;-63
2021/12/21 04:48:45;;;;;;;14.53;12.67;;;;;;;;;;2064811;28;20181;-63
2021/12/21 04:49:45;;;;;;;14.57;12.50;;;;;;;;;;2073023;28;20203;-63
2021/12/21 04:50:46;;;;;;;17.63;12.47;;;;;;;;;;2073546;28;20668;-63
2021/12/21 04:51:46;;;;;;;16.77;13.60;;;;;;;;;;2073413;28;20196;-62
2021/12/21 04:52:46;;;;;;;18.70;13.80;;;;;;;;;;2073584;28;20208;-63
2021/12/21 04:53:47;;;;;;;21.13;14.33;;;;;;;;;;2073500;28;20192;-63
2021/12/21 04:54:47;;;;;;;15.43;13.33;;;;;;;;;;2069333;28;20189;-62
2021/12/21 04:55:47;;;;;;;16.33;13.17;;;;;;;;;;2074847;28;20546;-63
2021/12/21 04:56:47;;;;;;;16.77;14.07;;;;;;;;;;2072302;28;20177;-63
2021/12/21 04:57:48;;;;;;;15.23;13.17;;;;;;;;;;2071634;28;20193;-63
2021/12/21 04:58:48;;;;;;;14.27;12.50;;;;;;;;;;2072696;28;20260;-62
2021/12/21 04:59:49;;;;;;;14.07;12.60;;;;;;;;;;2072001;28;20281;-63
2021/12/21 05:00:49;;;;;;;15.77;13.27;;;;;;;;;;2072834;28;20200;-62
2021/12/21 05:01:50;;;;;;;18.30;13.83;;;;;;;;;;2069945;28;20189;-63
2021/12/21 05:02:51;;;;;;;15.93;13.00;;;;;;;;;;2071432;28;20635;-63
2021/12/21 05:03:51;;;;;;;17.43;13.73;;;;;;;;;;2070878;28;20402;-59
2021/12/21 05:04:51;;;;;;;17.93;13.53;;;;;;;;;;2072481;28;20177;-63
2021/12/21 05:05:52;;;;;;;19.53;14.67;;;;;;;;;;2071772;28;20165;-63
2021/12/21 05:06:52;;;;;;;20.83;14.60;;;;;;;;;;2070942;28;20210;-62
2021/12/21 05:08:06;;;;;;;16.80;14.13;;;;;;;;;;2072272;28;20232;-60
2021/12/21 05:09:11;;;;;;;16.57;13.67;;;;;;;;;;2068849;28;20174;-61
2021/12/21 05:10:13;;;;;;;16.73;13.00;;;;;;;;;;2072510;28;20472;-62
2021/12/21 05:11:18;;;;;;;16.73;13.43;;;;;;;;;;2074774;28;20429;-62
2021/12/21 05:12:18;;;;;;;17.37;13.33;;;;;;;;;;2072232;28;20771;-61
2021/12/21 05:13:20;;;;;;;16.57;14.33;;;;;;;;;;2072791;28;20497;-62
2021/12/21 05:14:20;;;;;;;19.37;12.63;;;;;;;;;;2071854;28;20181;-61
2021/12/21 05:15:21;;;;;;;15.63;13.53;;;;;;;;;;2072059;28;20797;-62
2021/12/21 05:16:21;;;;;;;21.63;13.67;;;;;;;;;;2072288;28;20192;-61
2021/12/21 05:17:21;;;;;;;15.63;12.93;;;;;;;;;;2072289;28;20173;-62
2021/12/21 05:18:22;;;;;;;19.97;13.13;;;;;;;;;;2070115;28;20913;-63
2021/12/21 05:19:22;;;;;;;14.73;13.23;;;;;;;;;;2071219;28;20213;-62
2021/12/21 05:20:22;;;;;;;19.03;13.90;;;;;;;;;;2071677;28;20296;-62
2021/12/21 05:21:22;;;;;;;18.10;12.77;;;;;;;;;;2071967;28;20191;-60
2021/12/21 05:22:23;;;;;;;15.30;12.03;;;;;;;;;;2072438;28;20183;-63
2021/12/21 05:23:23;;;;;;;13.47;12.07;;;;;;;;;;2062950;28;20234;-62
2021/12/21 05:24:23;;;;;;;15.23;12.47;;;;;;;;;;2064025;28;20185;-61
2021/12/21 05:25:24;;;;;;;16.70;12.10;;;;;;;;;;2070392;28;20616;-62
2021/12/21 05:26:24;;;;;;;14.63;11.80;;;;;;;;;;2071020;28;20263;-62
2021/12/21 05:27:25;;;;;;;14.77;13.23;;;;;;;;;;2071383;28;20201;-63
2021/12/21 05:28:25;;;;;;;17.07;12.90;;;;;;;;;;2071624;28;20243;-63
2021/12/21 05:29:26;;;;;;;17.67;13.03;;;;;;;;;;2072802;28;20165;-62
2021/12/21 05:30:27;;;;;;;14.90;13.17;;;;;;;;;;2072177;28;20223;-63
2021/12/21 05:31:27;;;;;;;16.00;11.83;;;;;;;;;;2072205;28;20930;-63
2021/12/21 05:32:27;;;;;;;14.57;11.73;;;;;;;;;;2071795;28;21574;-63
2021/12/21 05:33:28;;;;;;;14.73;12.27;;;;;;;;;;2072781;28;20181;-63
2021/12/21 05:34:29;;;;;;;13.97;12.30;;;;;;;;;;2069389;28;20192;-63
2021/12/21 05:35:30;;;;;;;16.10;11.27;;;;;;;;;;2072554;28;20414;-62
2021/12/21 05:36:30;;;;;;;14.87;12.07;;;;;;;;;;2071978;28;20183;-63
2021/12/21 05:37:30;;;;;;;15.40;12.33;;;;;;;;;;2072126;28;20720;-61
2021/12/21 05:38:34;;;;;;;14.07;12.07;;;;;;;;;;2073263;28;20184;-62
2021/12/21 05:39:54;;;;;;;12.73;10.60;;;;;;;;;;2071768;28;20696;-60
2021/12/21 05:40:54;;;;;;;17.27;11.37;;;;;;;;;;2071078;28;20505;-62
2021/12/21 05:41:56;;;;;;;14.30;11.97;;;;;;;;;;2071136;28;20419;-62
2021/12/21 05:42:56;;;;;;;12.80;11.43;;;;;;;;;;2063474;28;20220;-62
2021/12/21 05:43:56;;;;;;;14.13;11.37;;;;;;;;;;2072308;28;20422;-62
2021/12/21 05:44:56;;;;;;;12.40;11.17;;;;;;;;;;2071823;28;20243;-62
2021/12/21 05:45:57;;;;;;;14.80;12.27;;;;;;;;;;2071720;28;20184;-60
2021/12/21 05:46:57;;;;;;;13.33;11.67;;;;;;;;;;2072340;28;20259;-63
2021/12/21 05:47:58;;;;;;;15.97;12.07;;;;;;;;;;2070685;28;20196;-63
2021/12/21 05:48:58;;;;;;;16.80;11.47;;;;;;;;;;2057604;28;20313;-63
2021/12/21 05:49:58;;;;;;;17.53;11.50;;;;;;;;;;2065744;28;20205;-62
2021/12/21 05:50:58;;;;;;;16.60;12.27;;;;;;;;;;2071328;28;20243;-63
2021/12/21 05:51:59;;;;;;;12.67;11.37;;;;;;;;;;2071888;28;20553;-63
2021/12/21 05:52:59;;;;;;;12.40;11.10;;;;;;;;;;2072394;28;20276;-63
2021/12/21 05:53:59;;;;;;;13.13;11.77;;;;;;;;;;2071799;28;20211;-63
2021/12/21 05:55:00;;;;;;;14.07;12.57;;;;;;;;;;2072432;28;20181;-63
2021/12/21 05:56:00;;;;;;;14.47;11.67;;;;;;;;;;2072013;28;20181;-63
2021/12/21 05:57:00;;;;;;;12.93;11.23;;;;;;;;;;2072382;28;20196;-63
2021/12/21 05:58:01;;;;;;;12.93;11.63;;;;;;;;;;2070585;28;20291;-63
2021/12/21 05:59:02;;;;;;;20.40;13.73;;;;;;;;;;2072520;28;20185;-63
2021/12/21 06:00:04;;;;;;;12.47;11.07;;;;;;;;;;2070340;28;20185;-63
2021/12/21 06:01:04;;;;;;;12.53;11.43;;;;;;;;;;2071924;28;20394;-63
2021/12/21 06:02:05;;;;;;;13.33;11.93;;;;;;;;;;2072096;28;20426;-63
2021/12/21 06:03:05;;;;;;;13.13;11.20;;;;;;;;;;2073099;28;20669;-63
2021/12/21 06:04:05;;;;;;;14.20;12.23;;;;;;;;;;2070805;28;20711;-63
2021/12/21 06:05:06;;;;;;;14.87;13.30;;;;;;;;;;2072302;28;20197;-63
2021/12/21 06:06:13;;;;;;;15.80;11.30;;;;;;;;;;2071911;28;20173;-63
2021/12/21 06:07:14;;;;;;;15.70;13.00;;;;;;;;;;2071268;28;20161;-62
2021/12/21 06:08:15;;;;;;;13.53;11.87;;;;;;;;;;2072253;28;20490;-63
2021/12/21 06:09:15;;;;;;;14.60;11.40;;;;;;;;;;2070573;28;20181;-62
2021/12/21 06:10:22;;;;;;;13.67;12.27;;;;;;;;;;2072418;28;20173;-63
2021/12/21 06:11:23;;;;;;;19.43;12.90;;;;;;;;;;2072288;28;20180;-63
2021/12/21 06:15:24;;;;;;;13.37;10.03;;;;;;;;;;2072439;28;20394;-63
2021/12/21 06:23:04;;;;;;;11.70;10.13;;;;;;;;;;2041543;29;20935;-62
2021/12/21 06:26:37;;;;;;;13.13;11.23;;;;;;;;;;2071470;28;20414;-62
2021/12/21 06:27:38;;;;;;;12.93;11.03;;;;;;;;;;2070852;28;20889;-62
2021/12/21 06:28:39;;;;;;;13.60;11.70;;;;;;;;;;2071847;28;20208;-63
2021/12/21 06:29:40;;;;;;;13.13;11.67;;;;;;;;;;2072223;28;20205;-63
2021/12/21 06:30:40;;;;;;;14.47;12.53;;;;;;;;;;2072266;28;20933;-62
2021/12/21 06:31:41;;;;;;;12.10;10.90;;;;;;;;;;2072422;28;20442;-63
2021/12/21 06:32:41;;;;;;;12.47;10.93;;;;;;;;;;2071373;28;20180;-62
2021/12/21 06:33:41;;;;;;;12.47;10.63;;;;;;;;;;2080162;28;20200;-63
2021/12/21 06:34:42;;;;;;;13.03;11.30;;;;;;;;;;2077360;28;20259;-63
2021/12/21 06:35:43;;;;;;;13.30;10.93;;;;;;;;;;2072185;28;20219;-63
2021/12/21 06:36:44;;;;;;;13.13;11.73;;;;;;;;;;2072174;28;20496;-62
2021/12/21 06:37:44;;;;;;;15.13;11.07;;;;;;;;;;2068060;28;20202;-63
2021/12/21 06:38:44;;;;;;;13.73;12.00;;;;;;;;;;2073969;28;20242;-63
2021/12/21 06:39:44;;;;;;;16.17;11.80;;;;;;;;;;2074794;28;20177;-62
2021/12/21 06:40:45;;;;;;;12.43;11.20;;;;;;;;;;2070230;28;20268;-62
2021/12/21 06:41:45;;;;;;;13.37;11.97;;;;;;;;;;2072356;28;20180;-63
2021/12/21 06:42:49;;;;;;;13.40;12.00;;;;;;;;;;2072074;28;20180;-62
2021/12/21 06:43:49;;;;;;;14.57;12.17;;;;;;;;;;2072125;28;20177;-59
2021/12/21 06:44:55;;;;;;;13.43;11.97;;;;;;;;;;2071856;28;20493;-62
2021/12/21 06:46:04;;;;;;;14.83;12.10;;;;;;;;;;2074398;28;20670;-62
2021/12/21 06:51:15;;;;;;;14.80;11.53;;;;;;;;;;2071575;28;20409;-61
2021/12/21 06:52:16;;;;;;;14.03;12.47;;;;;;;;;;2070910;28;20436;-62
2021/12/21 06:53:16;;;;;;;13.40;12.03;;;;;;;;;;2071993;28;20410;-63